createdAt,value
2018-12-19T00:02:08.564Z,91.50
2018-12-19T00:04:36.905Z,91.60
2018-12-19T00:07:05.294Z,91.50
2018-12-19T00:09:33.620Z,91.60
2018-12-19T00:12:01.961Z,91.40
2018-12-19T00:14:30.356Z,91.40
2018-12-19T00:16:58.817Z,91.40
2018-12-19T00:19:27.200Z,91.40
2018-12-19T00:21:55.541Z,91.50
2018-12-19T00:24:23.893Z,91.50
2018-12-19T00:26:52.301Z,91.50
2018-12-19T00:29:20.630Z,91.40
2018-12-19T00:31:48.962Z,91.30
2018-12-19T00:34:17.360Z,91.30
2018-12-19T00:36:45.691Z,91.40
2018-12-19T00:39:14.226Z,91.60
2018-12-19T00:41:42.659Z,91.50
2018-12-19T00:44:10.993Z,91.50
2018-12-19T00:46:39.386Z,91.60
2018-12-19T00:49:07.835Z,91.50
2018-12-19T00:51:36.190Z,91.50
2018-12-19T00:54:04.609Z,91.50
2018-12-19T00:56:32.962Z,91.60
2018-12-19T00:59:01.368Z,91.50
2018-12-19T01:01:29.731Z,91.30
2018-12-19T01:03:58.056Z,91.40
2018-12-19T01:06:26.562Z,91.90
2018-12-19T01:08:54.956Z,91.50
2018-12-19T01:11:23.426Z,91.50
2018-12-19T01:13:51.828Z,91.50
2018-12-19T01:16:20.310Z,91.50
2018-12-19T01:18:48.653Z,91.50
2018-12-19T01:21:17.048Z,91.50
2018-12-19T01:23:45.381Z,91.30
2018-12-19T01:26:13.741Z,91.50
2018-12-19T01:28:42.116Z,91.50
2018-12-19T01:31:10.530Z,91.50
2018-12-19T01:33:38.930Z,91.50
2018-12-19T01:36:07.266Z,91.50
2018-12-19T01:38:35.604Z,91.60
2018-12-19T01:41:04.128Z,91.70
2018-12-19T01:43:35.528Z,91.70
2018-12-19T01:46:03.934Z,91.70
2018-12-19T01:48:32.266Z,91.70
2018-12-19T01:51:00.617Z,91.70
2018-12-19T01:53:29.000Z,91.70
2018-12-19T01:55:57.624Z,91.60
2018-12-19T01:58:25.972Z,91.70
2018-12-19T02:00:54.356Z,91.70
2018-12-19T02:03:22.690Z,91.70
2018-12-19T02:05:51.322Z,91.70
2018-12-19T02:08:19.679Z,91.50
2018-12-19T02:10:48.014Z,91.70
2018-12-19T02:13:16.435Z,91.70
2018-12-19T02:15:44.759Z,91.70
2018-12-19T02:18:13.086Z,91.70
2018-12-19T02:20:41.480Z,91.70
2018-12-19T02:23:09.816Z,91.60
2018-12-19T02:25:38.197Z,91.70
2018-12-19T02:28:06.530Z,91.70
2018-12-19T02:30:35.037Z,91.70
2018-12-19T02:33:03.562Z,91.70
2018-12-19T02:35:31.935Z,91.70
2018-12-19T02:38:00.339Z,91.70
2018-12-19T02:40:28.709Z,91.70
2018-12-19T02:42:57.061Z,91.70
2018-12-19T02:45:25.567Z,91.60
2018-12-19T02:47:53.960Z,91.70
2018-12-19T02:50:22.298Z,91.70
2018-12-19T02:52:50.685Z,92.10
2018-12-19T02:55:19.555Z,91.80
2018-12-19T02:57:47.899Z,91.80
2018-12-19T03:00:16.305Z,91.70
2018-12-19T03:02:44.663Z,92.00
2018-12-19T03:05:13.143Z,91.70
2018-12-19T03:07:41.531Z,91.70
2018-12-19T03:10:09.937Z,91.70
2018-12-19T03:12:38.273Z,91.70
2018-12-19T03:15:06.881Z,91.60
2018-12-19T03:17:35.236Z,91.50
2018-12-19T03:20:03.808Z,91.70
2018-12-19T03:22:32.192Z,92.10
2018-12-19T03:25:00.523Z,91.60
2018-12-19T03:27:28.900Z,91.50
2018-12-19T03:29:57.241Z,91.60
2018-12-19T03:32:25.630Z,91.40
2018-12-19T03:34:54.185Z,91.40
2018-12-19T03:37:22.600Z,91.40
2018-12-19T03:39:51.001Z,91.40
2018-12-19T03:42:19.343Z,91.30
2018-12-19T03:44:47.822Z,91.40
2018-12-19T03:47:16.232Z,91.30
2018-12-19T03:49:44.685Z,91.40
2018-12-19T03:52:13.050Z,91.40
2018-12-19T03:54:41.405Z,91.40
2018-12-19T03:57:10.095Z,91.60
2018-12-19T03:59:38.457Z,91.70
2018-12-19T04:02:06.845Z,91.70
2018-12-19T04:04:35.227Z,91.80
2018-12-19T04:07:03.573Z,92.10
2018-12-19T04:09:32.147Z,91.60
2018-12-19T04:12:00.582Z,91.40
2018-12-19T04:14:28.982Z,91.60
2018-12-19T04:16:57.388Z,91.60
2018-12-19T04:19:25.732Z,91.70
2018-12-19T04:21:54.078Z,91.70
2018-12-19T04:24:22.461Z,91.80
2018-12-19T04:26:50.843Z,91.70
2018-12-19T04:29:19.175Z,91.70
2018-12-19T04:31:47.568Z,91.70
2018-12-19T04:34:15.894Z,91.60
2018-12-19T04:36:44.265Z,91.70
2018-12-19T04:39:12.693Z,91.60
2018-12-19T04:41:41.050Z,91.50
2018-12-19T04:44:09.407Z,91.60
2018-12-19T04:46:37.798Z,91.70
2018-12-19T04:49:06.152Z,91.70
2018-12-19T04:51:34.542Z,91.70
2018-12-19T04:54:02.948Z,91.60
2018-12-19T04:56:31.290Z,91.50
2018-12-19T04:58:59.692Z,91.40
2018-12-19T05:01:28.092Z,91.50
2018-12-19T05:03:56.472Z,91.50
2018-12-19T05:06:24.867Z,91.70
2018-12-19T05:08:54.162Z,91.70
2018-12-19T05:11:22.566Z,91.60
2018-12-19T05:13:50.912Z,91.50
2018-12-19T05:16:19.387Z,91.50
2018-12-19T05:18:47.905Z,91.50
2018-12-19T05:21:16.298Z,91.60
2018-12-19T05:23:44.641Z,91.50
2018-12-19T05:26:13.006Z,91.50
2018-12-19T05:28:41.398Z,91.60
2018-12-19T05:31:09.730Z,91.50
2018-12-19T05:33:38.079Z,91.50
2018-12-19T05:36:06.466Z,91.40
2018-12-19T05:38:34.820Z,91.40
2018-12-19T05:41:03.198Z,91.30
2018-12-19T05:43:31.537Z,91.30
2018-12-19T05:45:59.939Z,91.00
2018-12-19T05:48:28.256Z,90.90
2018-12-19T05:50:56.659Z,91.00
2018-12-19T05:53:25.173Z,90.90
2018-12-19T05:55:53.707Z,90.80
2018-12-19T05:58:22.047Z,90.90
2018-12-19T06:00:50.385Z,91.00
2018-12-19T06:03:18.822Z,91.00
2018-12-19T06:05:47.164Z,91.00
2018-12-19T06:08:15.583Z,91.00
2018-12-19T06:10:43.915Z,90.90
2018-12-19T06:13:12.266Z,90.90
2018-12-19T06:15:40.657Z,90.90
2018-12-19T06:18:09.051Z,91.00
2018-12-19T06:20:37.496Z,90.90
2018-12-19T06:23:05.934Z,90.90
2018-12-19T06:25:34.385Z,91.00
2018-12-19T06:28:02.874Z,91.00
2018-12-19T06:30:31.602Z,90.90
2018-12-19T06:32:59.994Z,90.90
2018-12-19T06:35:28.458Z,90.90
2018-12-19T06:37:56.805Z,90.80
2018-12-19T06:40:25.142Z,90.80
2018-12-19T06:42:53.563Z,90.90
2018-12-19T06:45:21.904Z,90.80
2018-12-19T06:47:50.238Z,90.90
2018-12-19T06:50:18.652Z,90.90
2018-12-19T06:52:46.986Z,90.80
2018-12-19T06:55:15.318Z,90.90
2018-12-19T06:57:43.702Z,90.90
2018-12-19T07:00:12.174Z,90.80
2018-12-19T07:02:40.570Z,90.90
2018-12-19T07:05:09.556Z,90.90
2018-12-19T07:07:37.908Z,90.90
2018-12-19T07:10:06.981Z,90.90
2018-12-19T07:12:35.390Z,90.90
2018-12-19T07:15:04.253Z,90.80
2018-12-19T07:17:32.588Z,91.30
2018-12-19T07:20:01.040Z,90.80
2018-12-19T07:22:29.368Z,90.80
2018-12-19T07:24:57.710Z,90.90
2018-12-19T07:27:26.116Z,90.80
2018-12-19T07:29:54.476Z,90.90
2018-12-19T07:32:22.846Z,90.80
2018-12-19T07:34:51.309Z,90.50
2018-12-19T07:39:54.440Z,90.70
2018-12-19T07:42:22.802Z,90.80
2018-12-19T07:44:51.207Z,90.90
2018-12-19T07:47:19.650Z,90.80
2018-12-19T07:49:48.012Z,90.80
2018-12-19T07:52:16.409Z,90.80
2018-12-19T07:54:45.365Z,90.80
2018-12-19T07:57:13.716Z,90.80
2018-12-19T07:59:42.174Z,90.90
2018-12-19T08:02:10.627Z,91.00
2018-12-19T08:04:39.072Z,90.90
2018-12-19T08:07:07.536Z,90.80
2018-12-19T08:09:35.982Z,90.70
2018-12-19T08:12:04.506Z,90.40
2018-12-19T08:14:32.852Z,90.70
2018-12-19T08:17:01.254Z,90.80
2018-12-19T08:19:29.611Z,90.80
2018-12-19T08:21:58.513Z,90.70
2018-12-19T08:24:26.960Z,91.10
2018-12-19T08:26:56.273Z,90.80
2018-12-19T08:29:24.624Z,90.80
2018-12-19T08:31:53.025Z,90.90
2018-12-19T08:34:21.351Z,90.80
2018-12-19T08:36:49.724Z,90.80
2018-12-19T08:39:18.401Z,90.80
2018-12-19T08:41:46.850Z,90.80
2018-12-19T08:44:15.208Z,90.80
2018-12-19T08:46:43.780Z,90.80
2018-12-19T08:49:12.218Z,90.80
2018-12-19T08:51:40.633Z,90.90
2018-12-19T08:54:09.036Z,90.80
2018-12-19T08:56:37.394Z,90.50
2018-12-19T08:59:05.804Z,90.50
2018-12-19T09:01:34.164Z,90.60
2018-12-19T09:04:02.567Z,90.20
2018-12-19T09:06:31.068Z,90.20
2018-12-19T09:08:59.451Z,90.10
2018-12-19T09:11:27.887Z,90.10
2018-12-19T09:13:56.691Z,90.20
2018-12-19T09:16:25.058Z,90.30
2018-12-19T09:18:53.454Z,90.00
2018-12-19T09:21:21.860Z,89.40
2018-12-19T09:23:50.195Z,89.10
2018-12-19T09:26:18.678Z,89.20
2018-12-19T09:28:47.850Z,89.20
2018-12-19T09:31:16.194Z,89.50
2018-12-19T09:33:44.627Z,89.80
2018-12-19T09:36:13.094Z,90.10
2018-12-19T09:38:41.488Z,90.10
2018-12-19T09:41:12.436Z,90.20
2018-12-19T09:43:40.326Z,90.20
2018-12-19T09:46:08.677Z,90.20
2018-12-19T09:48:37.020Z,89.90
2018-12-19T09:51:11.997Z,89.60
2018-12-19T09:53:40.352Z,90.00
2018-12-19T09:56:11.577Z,90.00
2018-12-19T09:58:39.966Z,90.00
2018-12-19T10:01:08.318Z,90.10
2018-12-19T10:03:36.688Z,90.10
2018-12-19T10:06:05.103Z,90.00
2018-12-19T10:08:33.530Z,90.00
2018-12-19T10:11:01.865Z,90.10
2018-12-19T10:13:30.265Z,90.00
2018-12-19T10:15:58.630Z,90.00
2018-12-19T10:18:26.979Z,90.00
2018-12-19T10:20:55.379Z,90.00
2018-12-19T10:23:24.162Z,90.00
2018-12-19T10:25:57.866Z,90.00
2018-12-19T10:28:31.705Z,90.10
2018-12-19T10:31:00.103Z,90.10
2018-12-19T10:33:28.504Z,90.50
2018-12-19T10:35:56.879Z,90.20
2018-12-19T10:38:25.207Z,90.30
2018-12-19T10:40:53.656Z,90.40
2018-12-19T10:43:25.054Z,90.50
2018-12-19T10:45:53.479Z,90.40
2018-12-19T10:48:21.836Z,90.80
2018-12-19T10:50:50.178Z,90.60
2018-12-19T10:53:18.597Z,90.70
2018-12-19T10:55:47.006Z,90.70
2018-12-19T10:58:21.912Z,90.90
2018-12-19T11:00:55.787Z,90.90
2018-12-19T11:03:24.152Z,90.90
2018-12-19T11:05:54.431Z,90.90
2018-12-19T11:08:23.119Z,90.80
2018-12-19T11:10:51.467Z,91.00
2018-12-19T11:13:19.806Z,91.00
2018-12-19T11:15:48.842Z,91.00
2018-12-19T11:18:17.190Z,91.00
2018-12-19T11:20:45.771Z,91.30
2018-12-19T11:23:14.140Z,91.50
2018-12-19T11:25:42.620Z,91.30
2018-12-19T11:28:11.258Z,91.00
2018-12-19T11:30:39.707Z,91.10
2018-12-19T11:33:08.032Z,91.20
2018-12-19T11:35:36.492Z,91.40
2018-12-19T11:38:04.836Z,91.30
2018-12-19T11:40:33.950Z,91.40
2018-12-19T11:43:02.359Z,91.40
2018-12-19T11:45:30.706Z,91.40
2018-12-19T11:47:59.076Z,91.60
2018-12-19T11:50:27.471Z,92.00
2018-12-19T11:52:55.820Z,91.60
2018-12-19T11:55:24.216Z,91.50
2018-12-19T11:57:52.618Z,91.60
2018-12-19T12:00:21.037Z,91.40
2018-12-19T12:02:49.384Z,91.40
2018-12-19T12:05:17.760Z,91.50
2018-12-19T12:07:46.125Z,91.70
2018-12-19T12:10:14.474Z,91.70
2018-12-19T12:12:42.890Z,91.80
2018-12-19T12:15:11.234Z,91.90
2018-12-19T12:17:39.619Z,91.90
2018-12-19T12:20:08.757Z,91.80
2018-12-19T12:22:37.214Z,91.90
2018-12-19T12:25:12.295Z,91.90
2018-12-19T12:27:40.646Z,91.90
2018-12-19T12:30:09.114Z,91.90
2018-12-19T12:32:38.491Z,91.70
2018-12-19T12:35:07.831Z,91.80
2018-12-19T12:37:36.191Z,92.20
2018-12-19T12:40:05.355Z,91.90
2018-12-19T12:42:33.805Z,92.30
2018-12-19T12:45:02.654Z,91.90
2018-12-19T12:47:31.085Z,92.10
2018-12-19T12:49:59.630Z,92.50
2018-12-19T12:52:27.973Z,92.70
2018-12-19T12:54:56.389Z,92.50
2018-12-19T12:57:24.742Z,92.70
2018-12-19T12:59:53.421Z,92.80
2018-12-19T13:02:21.850Z,92.80
2018-12-19T13:04:50.701Z,92.40
2018-12-19T13:07:19.257Z,92.20
2018-12-19T13:09:47.591Z,91.70
2018-12-19T13:12:15.938Z,91.60
2018-12-19T13:14:44.337Z,91.70
2018-12-19T13:17:13.279Z,91.50
2018-12-19T13:19:41.616Z,91.40
2018-12-19T13:22:10.041Z,90.90
2018-12-19T13:24:38.404Z,90.80
2018-12-19T13:27:06.750Z,90.90
2018-12-19T13:29:35.173Z,91.00
2018-12-19T13:32:03.543Z,91.20
2018-12-19T13:34:31.987Z,91.30
2018-12-19T13:37:00.539Z,91.30
2018-12-19T13:39:28.960Z,91.50
2018-12-19T13:41:57.350Z,91.70
2018-12-19T13:44:25.865Z,91.70
2018-12-19T13:46:54.244Z,91.80
2018-12-19T13:49:22.637Z,92.00
2018-12-19T13:51:51.001Z,92.30
2018-12-19T13:54:19.431Z,91.80
2018-12-19T13:56:47.902Z,91.80
2018-12-19T13:59:16.241Z,91.80
2018-12-19T14:01:44.591Z,92.00
2018-12-19T14:04:13.111Z,92.40
2018-12-19T14:06:41.493Z,92.00
2018-12-19T14:09:10.034Z,91.90
2018-12-19T14:11:38.373Z,91.80
2018-12-19T14:14:06.842Z,91.90
2018-12-19T14:16:35.317Z,92.20
2018-12-19T14:19:03.781Z,91.90
2018-12-19T14:21:32.197Z,91.90
2018-12-19T14:24:00.557Z,92.10
2018-12-19T14:26:28.904Z,92.10
2018-12-19T14:28:57.309Z,92.10
2018-12-19T14:31:25.647Z,92.40
2018-12-19T14:33:53.985Z,92.30
2018-12-19T14:36:22.447Z,92.40
2018-12-19T14:38:50.782Z,92.60
2018-12-19T14:41:19.131Z,92.50
2018-12-19T14:43:47.603Z,92.40
2018-12-19T14:46:15.937Z,92.30
2018-12-19T14:48:44.357Z,92.20
2018-12-19T14:51:13.228Z,92.10
2018-12-19T14:53:41.571Z,92.20
2018-12-19T14:56:09.920Z,92.20
2018-12-19T14:58:38.382Z,92.20
2018-12-19T15:01:06.714Z,92.30
2018-12-19T15:03:35.096Z,92.20
2018-12-19T15:06:03.745Z,92.20
2018-12-19T15:08:35.045Z,92.20
2018-12-19T15:11:03.775Z,92.30
2018-12-19T15:13:32.190Z,92.20
2018-12-19T15:16:01.644Z,92.20
2018-12-19T15:18:30.040Z,92.40
2018-12-19T15:20:58.564Z,92.40
2018-12-19T15:23:27.010Z,92.30
2018-12-19T15:25:55.436Z,92.30
2018-12-19T15:28:23.779Z,92.30
2018-12-19T15:30:52.117Z,92.30
2018-12-19T15:33:20.657Z,92.40
2018-12-19T15:35:49.046Z,92.40
2018-12-19T15:38:17.394Z,92.40
2018-12-19T15:40:45.854Z,92.40
2018-12-19T15:43:14.186Z,92.40
2018-12-19T15:45:42.562Z,92.40
2018-12-19T15:48:11.532Z,92.40
2018-12-19T15:50:39.946Z,92.40
2018-12-19T15:53:08.322Z,92.50
2018-12-19T15:55:36.686Z,92.50
2018-12-19T15:58:05.098Z,92.50
2018-12-19T16:00:33.466Z,92.50
2018-12-19T16:03:01.820Z,92.50
2018-12-19T16:05:30.204Z,92.50
2018-12-19T16:07:58.561Z,92.50
2018-12-19T16:10:26.960Z,92.50
2018-12-19T16:12:55.384Z,92.40
2018-12-19T16:15:24.169Z,92.40
2018-12-19T16:17:52.714Z,92.40
2018-12-19T16:20:21.134Z,92.40
2018-12-19T16:22:49.543Z,92.50
2018-12-19T16:25:17.894Z,92.50
2018-12-19T16:27:46.268Z,92.60
2018-12-19T16:30:14.666Z,92.70
2018-12-19T16:32:42.986Z,92.70
2018-12-19T16:35:11.469Z,92.70
2018-12-19T16:37:40.034Z,93.00
2018-12-19T16:40:08.658Z,93.00
2018-12-19T16:42:37.196Z,93.20
2018-12-19T16:45:06.360Z,93.30
2018-12-19T16:47:34.870Z,93.40
2018-12-19T16:50:03.945Z,93.40
2018-12-19T16:52:32.419Z,93.30
2018-12-19T16:55:00.826Z,93.20
2018-12-19T16:57:29.180Z,93.10
2018-12-19T16:59:57.661Z,93.00
2018-12-19T17:02:26.090Z,93.00
2018-12-19T17:04:54.429Z,93.00
2018-12-19T17:07:22.794Z,93.00
2018-12-19T17:09:51.182Z,93.00
2018-12-19T17:12:19.532Z,93.40
2018-12-19T17:14:48.454Z,93.00
2018-12-19T17:17:16.919Z,93.00
2018-12-19T17:19:45.287Z,93.00
2018-12-19T17:22:13.637Z,93.00
2018-12-19T17:24:42.044Z,93.00
2018-12-19T17:27:10.584Z,93.00
2018-12-19T17:29:38.943Z,93.40
2018-12-19T17:32:08.012Z,93.30
2018-12-19T17:34:36.429Z,93.00
2018-12-19T17:37:04.918Z,93.00
2018-12-19T17:39:33.428Z,93.10
2018-12-19T17:42:01.831Z,93.20
2018-12-19T17:44:30.198Z,93.00
2018-12-19T17:46:58.556Z,93.30
2018-12-19T17:49:27.124Z,93.20
2018-12-19T17:51:55.467Z,93.10
2018-12-19T17:54:23.782Z,93.10
2018-12-19T17:56:52.189Z,93.10
2018-12-19T17:59:20.547Z,93.10
2018-12-19T18:01:48.931Z,93.10
2018-12-19T18:04:17.904Z,93.00
2018-12-19T18:06:46.260Z,93.00
2018-12-19T18:09:15.039Z,92.90
2018-12-19T18:11:43.392Z,93.00
2018-12-19T18:14:11.853Z,93.00
2018-12-19T18:16:40.305Z,92.90
2018-12-19T18:19:08.617Z,92.90
2018-12-19T18:21:37.002Z,92.90
2018-12-19T18:24:05.419Z,92.80
2018-12-19T18:26:34.366Z,92.90
2018-12-19T18:29:02.846Z,93.30
2018-12-19T18:31:31.263Z,93.00
2018-12-19T18:33:59.640Z,93.00
2018-12-19T18:36:27.983Z,93.00
2018-12-19T18:38:56.431Z,93.00
2018-12-19T18:41:24.840Z,93.00
2018-12-19T18:43:53.209Z,93.00
2018-12-19T18:46:21.598Z,93.00
2018-12-19T18:48:49.954Z,93.00
2018-12-19T18:51:18.305Z,93.00
2018-12-19T18:53:46.723Z,93.10
2018-12-19T18:56:15.082Z,93.00
2018-12-19T18:58:43.437Z,93.10
2018-12-19T19:01:12.018Z,93.10
2018-12-19T19:03:40.456Z,93.00
2018-12-19T19:06:08.902Z,93.00
2018-12-19T19:08:37.347Z,93.00
2018-12-19T19:11:05.860Z,93.00
2018-12-19T19:13:34.375Z,93.00
2018-12-19T19:16:02.839Z,93.20
2018-12-19T19:18:31.260Z,93.20
2018-12-19T19:20:59.622Z,93.10
2018-12-19T19:23:27.981Z,93.40
2018-12-19T19:25:56.527Z,93.70
2018-12-19T19:28:24.861Z,93.30
2018-12-19T19:30:53.266Z,93.60
2018-12-19T19:33:21.613Z,93.60
2018-12-19T19:35:49.959Z,93.60
2018-12-19T19:38:18.359Z,93.70
2018-12-19T19:40:46.839Z,93.70
2018-12-19T19:43:15.187Z,93.60
2018-12-19T19:45:43.618Z,93.50
2018-12-19T19:48:11.959Z,93.40
2018-12-19T19:50:40.331Z,93.40
2018-12-19T19:53:08.723Z,93.40
2018-12-19T19:55:37.129Z,93.30
2018-12-19T19:58:05.475Z,93.40
2018-12-19T20:00:33.849Z,93.60
2018-12-19T20:03:02.771Z,93.70
2018-12-19T20:05:31.158Z,93.70
2018-12-19T20:07:59.549Z,93.70
2018-12-19T20:10:27.962Z,93.70
2018-12-19T20:12:56.378Z,93.70
2018-12-19T20:15:24.796Z,93.50
2018-12-19T20:17:53.343Z,93.60
2018-12-19T20:20:21.680Z,93.70
2018-12-19T20:22:50.093Z,93.70
2018-12-19T20:25:18.434Z,93.60
2018-12-19T20:27:46.781Z,93.50
2018-12-19T20:30:15.317Z,93.30
2018-12-19T20:32:43.679Z,93.30
2018-12-19T20:35:12.075Z,93.30
2018-12-19T20:37:40.473Z,93.00
2018-12-19T20:40:08.982Z,93.10
2018-12-19T20:42:37.485Z,93.20
2018-12-19T20:45:06.241Z,93.20
2018-12-19T20:47:34.593Z,93.20
2018-12-19T20:50:03.192Z,93.30
2018-12-19T20:52:31.619Z,93.20
2018-12-19T20:54:59.984Z,93.40
2018-12-19T20:57:28.359Z,93.30
2018-12-19T20:59:57.382Z,93.40
2018-12-19T21:02:25.889Z,93.30
2018-12-19T21:04:54.369Z,93.40
2018-12-19T21:07:22.805Z,93.30
2018-12-19T21:09:51.248Z,93.40
2018-12-19T21:12:19.587Z,93.40
2018-12-19T21:14:48.071Z,93.40
2018-12-19T21:17:21.939Z,93.50
2018-12-19T21:19:50.352Z,93.40
2018-12-19T21:22:18.679Z,93.30
2018-12-19T21:24:47.035Z,93.30
2018-12-19T21:27:15.436Z,93.20
2018-12-19T21:29:43.871Z,93.30
2018-12-19T21:32:12.905Z,93.40
2018-12-19T21:34:41.409Z,93.40
2018-12-19T21:37:09.778Z,93.40
2018-12-19T21:39:38.313Z,93.40
2018-12-19T21:42:06.817Z,93.40
2018-12-19T21:44:36.293Z,93.50
2018-12-19T21:47:04.749Z,93.50
2018-12-19T21:49:33.209Z,93.40
2018-12-19T21:52:01.556Z,93.40
2018-12-19T21:54:29.944Z,93.50
2018-12-19T21:56:58.289Z,93.60
2018-12-19T21:59:26.657Z,93.70
2018-12-19T22:01:55.201Z,93.70
2018-12-19T22:04:23.552Z,93.70
2018-12-19T22:06:51.995Z,93.90
2018-12-19T22:09:20.557Z,94.00
2018-12-19T22:11:48.945Z,94.00
2018-12-19T22:14:18.387Z,94.10
2018-12-19T22:16:58.984Z,94.10
2018-12-19T22:19:27.373Z,94.20
2018-12-19T22:21:55.812Z,94.30
2018-12-19T22:24:24.286Z,94.20
2018-12-19T22:26:52.890Z,94.20
2018-12-19T22:29:21.314Z,94.30
2018-12-19T22:31:49.685Z,94.40
2018-12-19T22:34:18.259Z,94.40
2018-12-19T22:36:46.774Z,94.60
2018-12-19T22:39:18.388Z,94.50
2018-12-19T22:41:47.566Z,94.60
2018-12-19T22:44:15.949Z,94.60
2018-12-19T22:46:44.389Z,94.60
2018-12-19T22:49:12.825Z,94.70
2018-12-19T22:51:41.248Z,94.60
2018-12-19T22:54:09.887Z,94.70
2018-12-19T22:56:38.363Z,94.40
2018-12-19T22:59:06.832Z,94.60
2018-12-19T23:01:41.369Z,94.40
2018-12-19T23:04:09.844Z,94.80
2018-12-19T23:06:38.386Z,94.60
2018-12-19T23:09:07.839Z,94.40
2018-12-19T23:11:36.412Z,94.90
2018-12-19T23:14:04.913Z,94.70
2018-12-19T23:16:33.653Z,94.80
2018-12-19T23:19:02.095Z,94.80
2018-12-19T23:21:30.812Z,94.90
2018-12-19T23:23:59.373Z,94.80
2018-12-19T23:26:27.980Z,94.80
2018-12-19T23:29:01.793Z,94.90
2018-12-19T23:31:30.308Z,94.70
2018-12-19T23:33:59.273Z,94.80
2018-12-19T23:36:27.790Z,94.80
2018-12-19T23:38:56.186Z,94.80
2018-12-19T23:41:24.548Z,94.70
2018-12-19T23:43:52.898Z,94.90
2018-12-19T23:46:21.322Z,94.80
2018-12-19T23:48:49.790Z,94.80
2018-12-19T23:51:18.348Z,94.60
2018-12-19T23:53:46.956Z,94.70
2018-12-19T23:56:15.399Z,94.60
2018-12-19T23:58:44.208Z,94.80
